Vitsentzos Kornaros — SXNX — position and weather

sailwx.info

Track history (hours):
 
Tides and Currents Weather Stations Pressure Air Temp Water Temp Dewpoint Dewpoint Depression Visibility Wind Speed Wind Dir Waves Ship Positions

Vitsentzos Kornaros

Last reported at 2014-Oct-01 10:33 UTC. Time now 2014-Oct-01 16:30 UTC.
Position N 36°27' E 022°53'.

Length 128 m; draft 4.5 m.

Type: Passenger vessel. MMSI: 239311000.

Date/timePositionNaut miles runAvg speedWind from/ knotsBaromVisibWave heightAir tempDewpointWater temp
2014-Oct-01 10:33N 36°27' E 022°53'71 1.7
2014-Sep-29 16:24N 37°28' E 023°38'1214.3
2014-Sep-29 15:33N 37°40' E 023°42'1414.1
2014-Sep-29 14:34N 37°54' E 023°37'3 3.5
2014-Sep-29 13:33N 37°57' E 023°38'0 0.0
2014-Sep-29 12:33N 37°57' E 023°38'0 0.0
2014-Sep-29 11:33N 37°57' E 023°38'0 0.0
2014-Sep-29 10:33N 37°57' E 023°38'0 0.0
2014-Sep-29 09:33N 37°57' E 023°38'0 0.0
2014-Sep-29 08:33N 37°57' E 023°38'0 0.0
2014-Sep-29 07:33N 37°57' E 023°38'0 0.0
2014-Sep-29 06:33N 37°57' E 023°38'0 0.0
2014-Sep-29 05:33N 37°57' E 023°38'9 8.8
2014-Sep-29 04:33N 37°48' E 023°41'1312.6
2014-Sep-29 03:33N 37°36' E 023°43'3213.2
2014-Sep-29 01:06N 37°06' E 023°29'  
2014-Sep-26 18:33N 36°60' E 023°28'3013.7
2014-Sep-26 16:22N 37°29' E 023°39'1214.6
2014-Sep-26 15:33N 37°40' E 023°42'1414.3
2014-Sep-26 14:34N 37°54' E 023°37'3 3.4
2014-Sep-26 13:33N 37°57' E 023°38'0 0.0
2014-Sep-26 12:33N 37°57' E 023°38'0 0.0
2014-Sep-26 11:33N 37°57' E 023°38'0 0.0
2014-Sep-26 10:33N 37°57' E 023°38'0 0.0
2014-Sep-26 09:33N 37°57' E 023°38'0 0.0
2014-Sep-26 08:33N 37°57' E 023°38'0 0.0
2014-Sep-26 07:33N 37°57' E 023°38'0 0.0
2014-Sep-26 06:33N 37°57' E 023°38'0 0.0
2014-Sep-26 05:33N 37°57' E 023°38'0 0.0
2014-Sep-26 04:33N 37°57' E 023°38'0 0.0
2014-Sep-26 03:33N 37°57' E 023°38'7 7.4
2014-Sep-26 02:34N 37°50' E 023°40'1313.2
2014-Sep-26 01:33N 37°37' E 023°43'1914.3
2014-Sep-26 00:12N 37°18' E 023°34'1114.9
2014-Sep-25 23:29N 37°08' E 023°30'1414.9
2014-Sep-25 22:31N 36°55' E 023°25'1414.6
2014-Sep-25 21:33N 36°41' E 023°19'1414.2
2014-Sep-25 20:33N 36°28' E 023°14'16 7.6
2014-Sep-25 18:30N 36°12' E 023°11'1313.8
2014-Sep-25 17:33N 36°01' E 023°20'1814.0
2014-Sep-25 16:16N 35°46' E 023°32'  
2014-Sep-23 02:15N 35°38' E 023°38'8310.7
2014-Sep-22 18:31N 37°00' E 023°28'1413.4
2014-Sep-22 17:29N 37°13' E 023°33'1313.7
2014-Sep-22 16:34N 37°26' E 023°38'1414.2
2014-Sep-22 15:34N 37°39' E 023°42'1413.9
2014-Sep-22 14:34N 37°53' E 023°37'4 4.5
2014-Sep-22 13:33N 37°57' E 023°38'0 0.0
2014-Sep-22 12:33N 37°57' E 023°38'0 0.0
2014-Sep-22 11:33N 37°57' E 023°38'0 0.0
2014-Sep-22 10:33N 37°57' E 023°38'0 0.0
2014-Sep-22 09:33N 37°57' E 023°38'0 0.0
2014-Sep-22 08:33N 37°57' E 023°38'0 0.0
2014-Sep-22 07:33N 37°57' E 023°38'0 0.0
2014-Sep-22 06:33N 37°57' E 023°38'0 0.0
2014-Sep-22 05:33N 37°57' E 023°38'0 0.0
2014-Sep-22 04:33N 37°57' E 023°38'10 9.8
2014-Sep-22 03:33N 37°48' E 023°42'1313.0
2014-Sep-22 02:33N 37°35' E 023°43'1414.1
2014-Sep-22 01:33N 37°21' E 023°36'1414.6
2014-Sep-22 00:34N 37°08' E 023°30'1414.3
2014-Sep-21 23:33N 36°54' E 023°25'1413.6
2014-Sep-21 22:33N 36°41' E 023°20'1413.5
2014-Sep-21 21:33N 36°28' E 023°15'1413.6
2014-Sep-21 20:30N 36°17' E 023°04'1 1.6
2014-Sep-21 19:33N 36°17' E 023°06'1414.0
2014-Sep-21 18:34N 36°04' E 023°13'11 9.2
2014-Sep-21 17:24N 35°54' E 023°18'1112.3
2014-Sep-21 16:33N 35°47' E 023°28'  
Track history (hours):
 
Tides and Currents Weather Stations Pressure Air Temp Water Temp Dewpoint Dewpoint Depression Visibility Wind Speed Wind Dir Waves Ship Positions

Vitsentzos Kornaros

Last reported at 2014-Oct-01 10:33 UTC. Time now 2014-Oct-01 16:30 UTC.
Position N 36°27' E 022°53'.

Length 128 m; draft 4.5 m.

Type: Passenger vessel. MMSI: 239311000.

Date/timePositionNaut miles runAvg speedWind from/ knotsBaromVisibWave heightAir tempDewpointWater temp
2014-Oct-01 10:33N 36°27' E 022°53'71 1.7
2014-Sep-29 16:24N 37°28' E 023°38'1214.3
2014-Sep-29 15:33N 37°40' E 023°42'1414.1
2014-Sep-29 14:34N 37°54' E 023°37'3 3.5
2014-Sep-29 13:33N 37°57' E 023°38'0 0.0
2014-Sep-29 12:33N 37°57' E 023°38'0 0.0
2014-Sep-29 11:33N 37°57' E 023°38'0 0.0
2014-Sep-29 10:33N 37°57' E 023°38'0 0.0
2014-Sep-29 09:33N 37°57' E 023°38'0 0.0
2014-Sep-29 08:33N 37°57' E 023°38'0 0.0
2014-Sep-29 07:33N 37°57' E 023°38'0 0.0
2014-Sep-29 06:33N 37°57' E 023°38'0 0.0
2014-Sep-29 05:33N 37°57' E 023°38'9 8.8
2014-Sep-29 04:33N 37°48' E 023°41'1312.6
2014-Sep-29 03:33N 37°36' E 023°43'3213.2
2014-Sep-29 01:06N 37°06' E 023°29'  
2014-Sep-26 18:33N 36°60' E 023°28'3013.7
2014-Sep-26 16:22N 37°29' E 023°39'1214.6
2014-Sep-26 15:33N 37°40' E 023°42'1414.3
2014-Sep-26 14:34N 37°54' E 023°37'3 3.4
2014-Sep-26 13:33N 37°57' E 023°38'0 0.0
2014-Sep-26 12:33N 37°57' E 023°38'0 0.0
2014-Sep-26 11:33N 37°57' E 023°38'0 0.0
2014-Sep-26 10:33N 37°57' E 023°38'0 0.0
2014-Sep-26 09:33N 37°57' E 023°38'0 0.0
2014-Sep-26 08:33N 37°57' E 023°38'0 0.0
2014-Sep-26 07:33N 37°57' E 023°38'0 0.0
2014-Sep-26 06:33N 37°57' E 023°38'0 0.0
2014-Sep-26 05:33N 37°57' E 023°38'0 0.0
2014-Sep-26 04:33N 37°57' E 023°38'0 0.0
2014-Sep-26 03:33N 37°57' E 023°38'7 7.4
2014-Sep-26 02:34N 37°50' E 023°40'1313.2
2014-Sep-26 01:33N 37°37' E 023°43'1914.3
2014-Sep-26 00:12N 37°18' E 023°34'1114.9
2014-Sep-25 23:29N 37°08' E 023°30'1414.9
2014-Sep-25 22:31N 36°55' E 023°25'1414.6
2014-Sep-25 21:33N 36°41' E 023°19'1414.2
2014-Sep-25 20:33N 36°28' E 023°14'16 7.6
2014-Sep-25 18:30N 36°12' E 023°11'1313.8
2014-Sep-25 17:33N 36°01' E 023°20'1814.0
2014-Sep-25 16:16N 35°46' E 023°32'  
2014-Sep-23 02:15N 35°38' E 023°38'8310.7
2014-Sep-22 18:31N 37°00' E 023°28'1413.4
2014-Sep-22 17:29N 37°13' E 023°33'1313.7
2014-Sep-22 16:34N 37°26' E 023°38'1414.2
2014-Sep-22 15:34N 37°39' E 023°42'1413.9
2014-Sep-22 14:34N 37°53' E 023°37'4 4.5
2014-Sep-22 13:33N 37°57' E 023°38'0 0.0
2014-Sep-22 12:33N 37°57' E 023°38'0 0.0
2014-Sep-22 11:33N 37°57' E 023°38'0 0.0
2014-Sep-22 10:33N 37°57' E 023°38'0 0.0
2014-Sep-22 09:33N 37°57' E 023°38'0 0.0
2014-Sep-22 08:33N 37°57' E 023°38'0 0.0
2014-Sep-22 07:33N 37°57' E 023°38'0 0.0
2014-Sep-22 06:33N 37°57' E 023°38'0 0.0
2014-Sep-22 05:33N 37°57' E 023°38'0 0.0
2014-Sep-22 04:33N 37°57' E 023°38'10 9.8
2014-Sep-22 03:33N 37°48' E 023°42'1313.0
2014-Sep-22 02:33N 37°35' E 023°43'1414.1
2014-Sep-22 01:33N 37°21' E 023°36'1414.6
2014-Sep-22 00:34N 37°08' E 023°30'1414.3
2014-Sep-21 23:33N 36°54' E 023°25'1413.6
2014-Sep-21 22:33N 36°41' E 023°20'1413.5
2014-Sep-21 21:33N 36°28' E 023°15'1413.6
2014-Sep-21 20:30N 36°17' E 023°04'1 1.6
2014-Sep-21 19:33N 36°17' E 023°06'1414.0
2014-Sep-21 18:34N 36°04' E 023°13'11 9.2
2014-Sep-21 17:24N 35°54' E 023°18'1112.3
2014-Sep-21 16:33N 35°47' E 023°28'  

Dump ship's entire track history